sensor_id;sensor_type;location;lat;lon;timestamp;pressure;altitude;pressure_sealevel;temperature;humidity
60355;BME280;46198;51.464;-0.066;2023-08-01T00:00:03;100016.06;;;15.50;100.00
60355;BME280;46198;51.464;-0.066;2023-08-01T00:02:37;100028.06;;;15.49;100.00
60355;BME280;46198;51.464;-0.066;2023-08-01T00:05:06;100024.81;;;15.52;100.00
60355;BME280;46198;51.464;-0.066;2023-08-01T00:07:34;100024.53;;;15.49;100.00
60355;BME280;46198;51.464;-0.066;2023-08-01T00:10:06;100023.69;;;15.48;100.00
60355;BME280;46198;51.464;-0.066;2023-08-01T00:12:34;100016.06;;;15.50;100.00
60355;BME280;46198;51.464;-0.066;2023-08-01T00:15:03;100013.88;;;15.47;100.00
60355;BME280;46198;51.464;-0.066;2023-08-01T00:17:32;100012.75;;;15.48;100.00
60355;BME280;46198;51.464;-0.066;2023-08-01T00:20:01;100017.41;;;15.43;100.00
60355;BME280;46198;51.464;-0.066;2023-08-01T00:22:30;100018.50;;;15.42;100.00
60355;BME280;46198;51.464;-0.066;2023-08-01T00:24:58;100022.63;;;15.39;100.00
60355;BME280;46198;51.464;-0.066;2023-08-01T00:27:27;100024.25;;;15.40;100.00
60355;BME280;46198;51.464;-0.066;2023-08-01T00:30:07;100024.50;;;15.39;100.00
60355;BME280;46198;51.464;-0.066;2023-08-01T00:32:35;100024.78;;;15.37;100.00
60355;BME280;46198;51.464;-0.066;2023-08-01T00:35:04;100019.88;;;15.39;100.00
60355;BME280;46198;51.464;-0.066;2023-08-01T00:37:32;100022.59;;;15.34;100.00
60355;BME280;46198;51.464;-0.066;2023-08-01T00:40:00;100016.56;;;15.32;100.00
60355;BME280;46198;51.464;-0.066;2023-08-01T00:42:30;100017.69;;;15.31;100.00
60355;BME280;46198;51.464;-0.066;2023-08-01T00:44:58;100017.69;;;15.31;100.00
60355;BME280;46198;51.464;-0.066;2023-08-01T00:47:27;100014.13;;;15.25;100.00
60355;BME280;46198;51.464;-0.066;2023-08-01T00:49:55;100019.28;;;15.27;100.00
60355;BME280;46198;51.464;-0.066;2023-08-01T00:52:24;100018.75;;;15.25;100.00
60355;BME280;46198;51.464;-0.066;2023-08-01T00:54:52;100031.88;;;15.23;100.00
60355;BME280;46198;51.464;-0.066;2023-08-01T00:57:21;100030.78;;;15.24;100.00
60355;BME280;46198;51.464;-0.066;2023-08-01T00:59:50;100031.88;;;15.23;100.00
60355;BME280;46198;51.464;-0.066;2023-08-01T01:02:18;100034.63;;;15.23;100.00
60355;BME280;46198;51.464;-0.066;2023-08-01T01:04:47;100029.69;;;15.25;100.00
60355;BME280;46198;51.464;-0.066;2023-08-01T01:07:16;100016.28;;;15.23;100.00
60355;BME280;46198;51.464;-0.066;2023-08-01T01:09:44;100032.16;;;15.21;100.00
60355;BME280;46198;51.464;-0.066;2023-08-01T01:12:13;100024.47;;;15.18;100.00
60355;BME280;46198;51.464;-0.066;2023-08-01T01:14:41;100020.38;;;15.16;100.00
60355;BME280;46198;51.464;-0.066;2023-08-01T01:17:10;100035.16;;;15.15;100.00
60355;BME280;46198;51.464;-0.066;2023-08-01T01:19:38;100031.06;;;15.17;100.00
60355;BME280;46198;51.464;-0.066;2023-08-01T01:22:09;100035.16;;;15.15;100.00
60355;BME280;46198;51.464;-0.066;2023-08-01T01:24:39;100024.75;;;15.17;100.00
60355;BME280;46198;51.464;-0.066;2023-08-01T01:27:09;100037.88;;;15.20;100.00
60355;BME280;46198;51.464;-0.066;2023-08-01T01:29:38;100025.84;;;15.21;100.00
60355;BME280;46198;51.464;-0.066;2023-08-01T01:32:07;100016.28;;;15.18;100.00
60355;BME280;46198;51.464;-0.066;2023-08-01T01:34:37;100008.63;;;15.20;100.00
60355;BME280;46198;51.464;-0.066;2023-08-01T01:37:05;100008.88;;;15.19;100.00
60355;BME280;46198;51.464;-0.066;2023-08-01T01:39:35;100028.03;;;15.19;100.00
60355;BME280;46198;51.464;-0.066;2023-08-01T01:42:04;100013.25;;;15.20;100.00
60355;BME280;46198;51.464;-0.066;2023-08-01T01:44:32;100026.94;;;15.20;100.00
60355;BME280;46198;51.464;-0.066;2023-08-01T01:47:00;100029.66;;;15.20;100.00
60355;BME280;46198;51.464;-0.066;2023-08-01T01:49:29;100034.06;;;15.21;100.00
60355;BME280;46198;51.464;-0.066;2023-08-01T01:51:57;100030.78;;;15.19;100.00
60355;BME280;46198;51.464;-0.066;2023-08-01T01:54:25;100032.97;;;15.22;100.00
60355;BME280;46198;51.464;-0.066;2023-08-01T01:56:55;100034.34;;;15.24;100.00
60355;BME280;46198;51.464;-0.066;2023-08-01T01:59:23;100032.97;;;15.22;100.00
60355;BME280;46198;51.464;-0.066;2023-08-01T02:01:51;100036.81;;;15.26;100.00
60355;BME280;46198;51.464;-0.066;2023-08-01T02:04:20;100026.69;;;15.26;100.00
60355;BME280;46198;51.464;-0.066;2023-08-01T02:06:48;100033.53;;;15.29;100.00
60355;BME280;46198;51.464;-0.066;2023-08-01T02:09:16;100024.22;;;15.30;100.00
60355;BME280;46198;51.464;-0.066;2023-08-01T02:11:45;100014.66;;;15.33;100.00
60355;BME280;46198;51.464;-0.066;2023-08-01T02:14:14;100027.78;;;15.30;100.00
60355;BME280;46198;51.464;-0.066;2023-08-01T02:16:42;100027.25;;;15.34;100.00
60355;BME280;46198;51.464;-0.066;2023-08-01T02:19:10;100027.53;;;15.37;100.00
60355;BME280;46198;51.464;-0.066;2023-08-01T02:21:38;100028.34;;;15.38;100.00
60355;BME280;46198;51.464;-0.066;2023-08-01T02:24:06;100028.09;;;15.39;100.00
60355;BME280;46198;51.464;-0.066;2023-08-01T02:26:34;100019.59;;;15.41;100.00
60355;BME280;46198;51.464;-0.066;2023-08-01T02:29:02;100022.63;;;15.44;100.00
60355;BME280;46198;51.464;-0.066;2023-08-01T02:31:32;100015.75;;;15.47;100.00
60355;BME280;46198;51.464;-0.066;2023-08-01T02:34:00;100026.44;;;15.48;100.00
60355;BME280;46198;51.464;-0.066;2023-08-01T02:36:28;100022.09;;;15.52;100.00
60355;BME280;46198;51.464;-0.066;2023-08-01T02:38:56;100019.88;;;15.49;100.00
60355;BME280;46198;51.464;-0.066;2023-08-01T02:41:24;100017.13;;;15.49;100.00
60355;BME280;46198;51.464;-0.066;2023-08-01T02:43:52;100021.78;;;15.49;100.00
60355;BME280;46198;51.464;-0.066;2023-08-01T02:46:20;100021.53;;;15.50;100.00
60355;BME280;46198;51.464;-0.066;2023-08-01T02:48:50;100029.72;;;15.50;100.00
60355;BME280;46198;51.464;-0.066;2023-08-01T02:51:18;100020.97;;;15.48;100.00
60355;BME280;46198;51.464;-0.066;2023-08-01T02:53:46;100020.16;;;15.53;100.00
60355;BME280;46198;51.464;-0.066;2023-08-01T02:56:14;100014.94;;;15.51;100.00
60355;BME280;46198;51.464;-0.066;2023-08-01T02:58:42;100015.50;;;15.54;100.00
60355;BME280;46198;51.464;-0.066;2023-08-01T03:01:10;100023.16;;;15.51;100.00
60355;BME280;46198;51.464;-0.066;2023-08-01T03:03:39;100017.97;;;15.50;100.00
60355;BME280;46198;51.464;-0.066;2023-08-01T03:06:09;100025.34;;;15.49;100.00
60355;BME280;46198;51.464;-0.066;2023-08-01T03:08:37;100022.34;;;15.51;100.00
60355;BME280;46198;51.464;-0.066;2023-08-01T03:11:06;100015.50;;;15.54;100.00
60355;BME280;46198;51.464;-0.066;2023-08-01T03:13:35;100020.41;;;15.51;100.00
60355;BME280;46198;51.464;-0.066;2023-08-01T03:16:03;100025.34;;;15.55;100.00
60355;BME280;46198;51.464;-0.066;2023-08-01T03:18:32;100021.78;;;15.49;100.00
60355;BME280;46198;51.464;-0.066;2023-08-01T03:21:00;100019.03;;;15.49;100.00
60355;BME280;46198;51.464;-0.066;2023-08-01T03:23:31;100017.44;;;15.53;100.00
60355;BME280;46198;51.464;-0.066;2023-08-01T03:26:00;100018.22;;;15.48;100.00
60355;BME280;46198;51.464;-0.066;2023-08-01T03:28:28;100015.50;;;15.48;100.00
60355;BME280;46198;51.464;-0.066;2023-08-01T03:30:56;100011.13;;;15.47;100.00
60355;BME280;46198;51.464;-0.066;2023-08-01T03:33:24;100015.75;;;15.47;100.00
60355;BME280;46198;51.464;-0.066;2023-08-01T03:35:53;100013.31;;;15.45;100.00
60355;BME280;46198;51.464;-0.066;2023-08-01T03:38:21;100016.03;;;15.45;100.00
60355;BME280;46198;51.464;-0.066;2023-08-01T03:40:50;100009.47;;;15.46;100.00
60355;BME280;46198;51.464;-0.066;2023-08-01T03:43:18;100010.03;;;15.43;100.00
60355;BME280;46198;51.464;-0.066;2023-08-01T03:45:51;100009.47;;;15.41;100.00
60355;BME280;46198;51.464;-0.066;2023-08-01T03:48:21;100014.94;;;15.41;100.00
60355;BME280;46198;51.464;-0.066;2023-08-01T03:50:49;100012.19;;;15.41;100.00
60355;BME280;46198;51.464;-0.066;2023-08-01T03:53:17;100004.81;;;15.37;100.00
60355;BME280;46198;51.464;-0.066;2023-08-01T03:55:47;100013.84;;;15.32;100.00
60355;BME280;46198;51.464;-0.066;2023-08-01T03:58:16;100020.94;;;15.28;100.00
60355;BME280;46198;51.464;-0.066;2023-08-01T04:00:44;100013.81;;;15.27;100.00
60355;BME280;46198;51.464;-0.066;2023-08-01T04:03:12;100016.84;;;15.25;100.00
60355;BME280;46198;51.464;-0.066;2023-08-01T04:05:41;100022.84;;;15.22;100.00
60355;BME280;46198;51.464;-0.066;2023-08-01T04:08:09;100022.84;;;15.17;100.00
60355;BME280;46198;51.464;-0.066;2023-08-01T04:10:37;100016.81;;;15.15;100.00
60355;BME280;46198;51.464;-0.066;2023-08-01T04:13:05;100013.78;;;15.12;100.00
60355;BME280;46198;51.464;-0.066;2023-08-01T04:15:35;100015.19;;;15.09;100.00
60355;BME280;46198;51.464;-0.066;2023-08-01T04:18:03;100027.72;;;15.00;100.00
60355;BME280;46198;51.464;-0.066;2023-08-01T04:20:31;100023.06;;;15.05;100.00
60355;BME280;46198;51.464;-0.066;2023-08-01T04:22:59;100024.16;;;14.99;100.00
60355;BME280;46198;51.464;-0.066;2023-08-01T04:25:27;100028.25;;;14.97;100.00
60355;BME280;46198;51.464;-0.066;2023-08-01T04:27:55;100026.88;;;14.94;100.00
60355;BME280;46198;51.464;-0.066;2023-08-01T04:30:23;100018.13;;;14.92;100.00
60355;BME280;46198;51.464;-0.066;2023-08-01T04:32:53;100023.31;;;14.89;100.00
60355;BME280;46198;51.464;-0.066;2023-08-01T04:35:21;100016.47;;;14.86;100.00
60355;BME280;46198;51.464;-0.066;2023-08-01T04:37:49;100019.44;;;14.84;100.00
60355;BME280;46198;51.464;-0.066;2023-08-01T04:40:17;100032.03;;;14.80;100.00
60355;BME280;46198;51.464;-0.066;2023-08-01T04:42:45;100030.66;;;14.78;100.00
60355;BME280;46198;51.464;-0.066;2023-08-01T04:45:13;100030.06;;;14.76;100.00
60355;BME280;46198;51.464;-0.066;2023-08-01T04:47:41;100031.19;;;14.75;100.00
60355;BME280;46198;51.464;-0.066;2023-08-01T04:50:11;100033.91;;;14.75;100.00
60355;BME280;46198;51.464;-0.066;2023-08-01T04:52:39;100036.66;;;14.75;100.00
60355;BME280;46198;51.464;-0.066;2023-08-01T04:55:07;100038.81;;;14.73;100.00
60355;BME280;46198;51.464;-0.066;2023-08-01T04:57:35;100047.28;;;14.71;100.00
60355;BME280;46198;51.464;-0.066;2023-08-01T05:00:04;100048.09;;;14.67;100.00
60355;BME280;46198;51.464;-0.066;2023-08-01T05:02:33;100051.88;;;14.66;100.00
60355;BME280;46198;51.464;-0.066;2023-08-01T05:05:01;100045.34;;;14.67;100.00
60355;BME280;46198;51.464;-0.066;2023-08-01T05:07:30;100051.34;;;14.63;100.00
60355;BME280;46198;51.464;-0.066;2023-08-01T05:09:58;100056.25;;;14.61;100.00
60355;BME280;46198;51.464;-0.066;2023-08-01T05:12:26;100059.00;;;14.61;100.00
60355;BME280;46198;51.464;-0.066;2023-08-01T05:14:54;100056.25;;;14.61;100.00
60355;BME280;46198;51.464;-0.066;2023-08-01T05:17:22;100063.88;;;14.59;100.00
60355;BME280;46198;51.464;-0.066;2023-08-01T05:19:50;100053.53;;;14.61;100.00
60355;BME280;46198;51.464;-0.066;2023-08-01T05:22:18;100062.81;;;14.60;100.00
60355;BME280;46198;51.464;-0.066;2023-08-01T05:24:48;100059.00;;;14.61;100.00
60355;BME280;46198;51.464;-0.066;2023-08-01T05:27:16;100063.34;;;14.62;100.00
60355;BME280;46198;51.464;-0.066;2023-08-01T05:29:44;100048.88;;;14.62;100.00
60355;BME280;46198;51.464;-0.066;2023-08-01T05:32:12;100067.19;;;14.61;100.00
60355;BME280;46198;51.464;-0.066;2023-08-01T05:34:40;100066.38;;;14.61;100.00
60355;BME280;46198;51.464;-0.066;2023-08-01T05:37:08;100067.75;;;14.63;100.00
60355;BME280;46198;51.464;-0.066;2023-08-01T05:39:36;100069.91;;;14.61;100.00
60355;BME280;46198;51.464;-0.066;2023-08-01T05:42:06;100061.16;;;14.59;100.00
60355;BME280;46198;51.464;-0.066;2023-08-01T05:44:35;100068.28;;;14.60;100.00
60355;BME280;46198;51.464;-0.066;2023-08-01T05:47:03;100068.28;;;14.66;100.00
60355;BME280;46198;51.464;-0.066;2023-08-01T05:49:31;100070.75;;;14.67;100.00
60355;BME280;46198;51.464;-0.066;2023-08-01T05:52:00;100062.00;;;14.65;100.00
60355;BME280;46198;51.464;-0.066;2023-08-01T05:54:28;100065.88;;;14.69;100.00
60355;BME280;46198;51.464;-0.066;2023-08-01T05:56:56;100064.19;;;14.68;100.00
60355;BME280;46198;51.464;-0.066;2023-08-01T05:59:26;100072.69;;;14.67;100.00
60355;BME280;46198;51.464;-0.066;2023-08-01T06:01:54;100067.81;;;14.74;100.00
60355;BME280;46198;51.464;-0.066;2023-08-01T06:04:22;100073.28;;;14.74;100.00
60355;BME280;46198;51.464;-0.066;2023-08-01T06:06:50;100078.19;;;14.77;100.00
60355;BME280;46198;51.464;-0.066;2023-08-01T06:09:18;100078.47;;;14.80;100.00
60355;BME280;46198;51.464;-0.066;2023-08-01T06:11:50;100072.19;;;14.80;100.00
60355;BME280;46198;51.464;-0.066;2023-08-01T06:14:18;100073.84;;;14.81;100.00
60355;BME280;46198;51.464;-0.066;2023-08-01T06:16:47;100081.78;;;14.82;100.00
60355;BME280;46198;51.464;-0.066;2023-08-01T06:19:15;100095.69;;;14.81;100.00
60355;BME280;46198;51.464;-0.066;2023-08-01T06:21:43;100088.88;;;14.83;100.00
60355;BME280;46198;51.464;-0.066;2023-08-01T06:24:11;100085.91;;;14.90;100.00
60355;BME280;46198;51.464;-0.066;2023-08-01T06:26:40;100086.72;;;14.85;100.00
60355;BME280;46198;51.464;-0.066;2023-08-01T06:29:09;100088.66;;;14.95;100.00
60355;BME280;46198;51.464;-0.066;2023-08-01T06:31:37;100100.69;;;14.99;100.00
60355;BME280;46198;51.464;-0.066;2023-08-01T06:34:06;100094.44;;;15.04;100.00
60355;BME280;46198;51.464;-0.066;2023-08-01T06:36:34;100104.31;;;15.10;100.00
60355;BME280;46198;51.464;-0.066;2023-08-01T06:39:02;100096.66;;;15.22;100.00
60355;BME280;46198;51.464;-0.066;2023-08-01T06:41:31;100101.91;;;15.29;100.00
60355;BME280;46198;51.464;-0.066;2023-08-01T06:43:59;100100.81;;;15.35;100.00
60355;BME280;46198;51.464;-0.066;2023-08-01T06:46:27;100102.22;;;15.43;100.00
60355;BME280;46198;51.464;-0.066;2023-08-01T06:48:55;100109.63;;;15.52;100.00
60355;BME280;46198;51.464;-0.066;2023-08-01T06:51:25;100103.06;;;15.59;100.00
60355;BME280;46198;51.464;-0.066;2023-08-01T06:53:53;100104.72;;;15.65;100.00
60355;BME280;46198;51.464;-0.066;2023-08-01T06:56:21;100107.50;;;15.75;100.00
60355;BME280;46198;51.464;-0.066;2023-08-01T06:58:49;100109.97;;;15.82;100.00
60355;BME280;46198;51.464;-0.066;2023-08-01T07:01:17;100116.81;;;15.89;100.00
60355;BME280;46198;51.464;-0.066;2023-08-01T07:03:49;100114.09;;;16.00;100.00
60355;BME280;46198;51.464;-0.066;2023-08-01T07:06:19;100102.84;;;16.16;100.00
60355;BME280;46198;51.464;-0.066;2023-08-01T07:08:49;100106.41;;;16.32;100.00
60355;BME280;46198;51.464;-0.066;2023-08-01T07:11:17;100104.75;;;16.36;100.00
60355;BME280;46198;51.464;-0.066;2023-08-01T07:13:45;100105.84;;;16.51;100.00
60355;BME280;46198;51.464;-0.066;2023-08-01T07:16:13;100102.00;;;16.52;100.00
60355;BME280;46198;51.464;-0.066;2023-08-01T07:18:42;100110.22;;;16.52;100.00
60355;BME280;46198;51.464;-0.066;2023-08-01T07:21:10;100100.31;;;16.61;100.00
60355;BME280;46198;51.464;-0.066;2023-08-01T07:23:38;100108.00;;;16.64;100.00
60355;BME280;46198;51.464;-0.066;2023-08-01T07:26:07;100112.13;;;16.67;100.00
60355;BME280;46198;51.464;-0.066;2023-08-01T07:28:37;100118.09;;;16.74;100.00
60355;BME280;46198;51.464;-0.066;2023-08-01T07:31:06;100110.19;;;16.77;100.00
60355;BME280;46198;51.464;-0.066;2023-08-01T07:33:36;100115.13;;;16.80;100.00
60355;BME280;46198;51.464;-0.066;2023-08-01T07:36:05;100109.03;;;16.94;100.00
60355;BME280;46198;51.464;-0.066;2023-08-01T07:38:33;100118.69;;;16.81;100.00
60355;BME280;46198;51.464;-0.066;2023-08-01T07:41:02;100115.69;;;16.77;100.00
60355;BME280;46198;51.464;-0.066;2023-08-01T07:43:33;100109.56;;;16.91;100.00
60355;BME280;46198;51.464;-0.066;2023-08-01T07:46:01;100110.13;;;16.98;100.00
60355;BME280;46198;51.464;-0.066;2023-08-01T07:48:29;100110.63;;;17.10;100.00
60355;BME280;46198;51.464;-0.066;2023-08-01T07:50:57;100115.59;;;16.98;100.00
60355;BME280;46198;51.464;-0.066;2023-08-01T07:53:25;100111.75;;;16.99;100.00
60355;BME280;46198;51.464;-0.066;2023-08-01T07:55:54;100129.84;;;17.05;100.00
60355;BME280;46198;51.464;-0.066;2023-08-01T07:58:23;100124.09;;;16.96;100.00
60355;BME280;46198;51.464;-0.066;2023-08-01T08:00:52;100123.03;;;16.92;100.00
60355;BME280;46198;51.464;-0.066;2023-08-01T08:03:21;100110.94;;;16.98;100.00
60355;BME280;46198;51.464;-0.066;2023-08-01T08:05:50;100127.31;;;17.19;100.00
60355;BME280;46198;51.464;-0.066;2023-08-01T08:08:18;100121.78;;;17.29;100.00
60355;BME280;46198;51.464;-0.066;2023-08-01T08:10:46;100129.44;;;17.32;100.00
60355;BME280;46198;51.464;-0.066;2023-08-01T08:13:14;100118.56;;;17.61;100.00
60355;BME280;46198;51.464;-0.066;2023-08-01T08:15:43;100116.16;;;17.94;100.00
60355;BME280;46198;51.464;-0.066;2023-08-01T08:18:12;100116.88;;;18.10;100.00
60355;BME280;46198;51.464;-0.066;2023-08-01T08:20:42;100107.34;;;18.02;100.00
60355;BME280;46198;51.464;-0.066;2023-08-01T08:23:11;100117.91;;;18.48;100.00
60355;BME280;46198;51.464;-0.066;2023-08-01T08:25:40;100111.50;;;18.29;100.00
60355;BME280;46198;51.464;-0.066;2023-08-01T08:28:09;100113.03;;;18.40;100.00
60355;BME280;46198;51.464;-0.066;2023-08-01T08:30:38;100119.31;;;18.75;100.00
60355;BME280;46198;51.464;-0.066;2023-08-01T08:33:06;100129.50;;;18.98;100.00
60355;BME280;46198;51.464;-0.066;2023-08-01T08:35:38;100132.84;;;18.95;100.00
60355;BME280;46198;51.464;-0.066;2023-08-01T08:38:06;100128.91;;;19.01;100.00
60355;BME280;46198;51.464;-0.066;2023-08-01T08:40:39;100129.56;;;18.93;100.00
60355;BME280;46198;51.464;-0.066;2023-08-01T08:43:09;100132.13;;;19.09;100.00
60355;BME280;46198;51.464;-0.066;2023-08-01T08:45:40;100125.19;;;18.92;100.00
60355;BME280;46198;51.464;-0.066;2023-08-01T08:48:13;100130.38;;;18.65;100.00
60355;BME280;46198;51.464;-0.066;2023-08-01T08:50:45;100126.91;;;18.83;100.00
60355;BME280;46198;51.464;-0.066;2023-08-01T08:53:13;100131.13;;;18.99;100.00
60355;BME280;46198;51.464;-0.066;2023-08-01T08:55:42;100127.22;;;19.06;100.00
60355;BME280;46198;51.464;-0.066;2023-08-01T08:58:11;100121.72;;;19.06;100.00
60355;BME280;46198;51.464;-0.066;2023-08-01T09:00:39;100121.41;;;18.83;100.00
60355;BME280;46198;51.464;-0.066;2023-08-01T09:03:07;100116.09;;;18.92;100.00
60355;BME280;46198;51.464;-0.066;2023-08-01T09:05:40;100119.19;;;19.09;100.00
60355;BME280;46198;51.464;-0.066;2023-08-01T09:08:16;100119.03;;;19.00;100.00
60355;BME280;46198;51.464;-0.066;2023-08-01T09:10:45;100124.59;;;18.95;100.00
60355;BME280;46198;51.464;-0.066;2023-08-01T09:13:14;100116.25;;;19.24;100.00
60355;BME280;46198;51.464;-0.066;2023-08-01T09:15:42;100127.28;;;19.24;100.00
60355;BME280;46198;51.464;-0.066;2023-08-01T09:18:11;100120.00;;;19.10;100.00
60355;BME280;46198;51.464;-0.066;2023-08-01T09:20:41;100134.31;;;19.12;100.00
60355;BME280;46198;51.464;-0.066;2023-08-01T09:23:09;100137.81;;;18.93;100.00
60355;BME280;46198;51.464;-0.066;2023-08-01T09:25:39;100129.59;;;19.12;100.00
60355;BME280;46198;51.464;-0.066;2023-08-01T09:28:18;100140.47;;;19.46;100.00
60355;BME280;46198;51.464;-0.066;2023-08-01T09:30:48;100133.88;;;19.85;100.00
60355;BME280;46198;51.464;-0.066;2023-08-01T09:33:18;100137.25;;;20.15;100.00
60355;BME280;46198;51.464;-0.066;2023-08-01T09:35:46;100139.50;;;20.13;100.00
60355;BME280;46198;51.464;-0.066;2023-08-01T09:38:15;100125.19;;;20.11;100.00
60355;BME280;46198;51.464;-0.066;2023-08-01T09:40:47;100128.75;;;20.30;100.00
60355;BME280;46198;51.464;-0.066;2023-08-01T09:43:16;100135.47;;;20.05;100.00
60355;BME280;46198;51.464;-0.066;2023-08-01T09:45:50;100134.69;;;19.86;100.00
60355;BME280;46198;51.464;-0.066;2023-08-01T09:48:23;100137.00;;;19.98;100.00
60355;BME280;46198;51.464;-0.066;2023-08-01T09:51:04;100129.81;;;20.15;100.00
60355;BME280;46198;51.464;-0.066;2023-08-01T09:53:32;100138.38;;;20.14;100.00
60355;BME280;46198;51.464;-0.066;2023-08-01T09:56:02;100143.72;;;20.24;100.00
60355;BME280;46198;51.464;-0.066;2023-08-01T09:58:32;100136.31;;;20.06;100.00
60355;BME280;46198;51.464;-0.066;2023-08-01T10:01:01;100139.41;;;20.18;100.00
60355;BME280;46198;51.464;-0.066;2023-08-01T10:03:29;100148.97;;;20.07;100.00
60355;BME280;46198;51.464;-0.066;2023-08-01T10:05:58;100147.25;;;19.92;100.00
60355;BME280;46198;51.464;-0.066;2023-08-01T10:08:29;100151.41;;;20.08;100.00
60355;BME280;46198;51.464;-0.066;2023-08-01T10:11:04;100150.50;;;20.13;100.00
60355;BME280;46198;51.464;-0.066;2023-08-01T10:13:32;100153.34;;;20.08;100.00
60355;BME280;46198;51.464;-0.066;2023-08-01T10:16:01;100158.03;;;20.07;100.00
60355;BME280;46198;51.464;-0.066;2023-08-01T10:18:30;100152.06;;;20.19;100.00
60355;BME280;46198;51.464;-0.066;2023-08-01T10:21:00;100144.41;;;20.49;100.00
60355;BME280;46198;51.464;-0.066;2023-08-01T10:23:29;100151.53;;;20.36;100.00
60355;BME280;46198;51.464;-0.066;2023-08-01T10:25:58;100159.25;;;20.01;100.00
60355;BME280;46198;51.464;-0.066;2023-08-01T10:28:32;100142.00;;;20.28;100.00
60355;BME280;46198;51.464;-0.066;2023-08-01T10:31:11;100137.03;;;20.44;100.00
60355;BME280;46198;51.464;-0.066;2023-08-01T10:33:40;100148.13;;;20.25;100.00
60355;BME280;46198;51.464;-0.066;2023-08-01T10:36:13;100141.84;;;20.06;100.00
60355;BME280;46198;51.464;-0.066;2023-08-01T10:38:46;100138.38;;;20.14;100.00
60355;BME280;46198;51.464;-0.066;2023-08-01T10:41:22;100144.16;;;20.31;100.00
60355;BME280;46198;51.464;-0.066;2023-08-01T10:43:51;100135.59;;;20.66;100.00
60355;BME280;46198;51.464;-0.066;2023-08-01T10:46:19;100132.69;;;20.57;100.00
60355;BME280;46198;51.464;-0.066;2023-08-01T10:48:49;100132.44;;;20.86;100.00
60355;BME280;46198;51.464;-0.066;2023-08-01T10:51:17;100126.28;;;21.03;100.00
60355;BME280;46198;51.464;-0.066;2023-08-01T10:53:46;100133.56;;;20.99;100.00
60355;BME280;46198;51.464;-0.066;2023-08-01T10:56:18;100123.72;;;21.48;100.00
60355;BME280;46198;51.464;-0.066;2023-08-01T10:58:47;100130.56;;;21.37;100.00
60355;BME280;46198;51.464;-0.066;2023-08-01T11:01:16;100129.25;;;21.48;100.00
60355;BME280;46198;51.464;-0.066;2023-08-01T11:03:44;100134.06;;;21.29;100.00
60355;BME280;46198;51.464;-0.066;2023-08-01T11:06:13;100141.59;;;20.68;100.00
60355;BME280;46198;51.464;-0.066;2023-08-01T11:08:41;100144.00;;;21.02;100.00
60355;BME280;46198;51.464;-0.066;2023-08-01T11:11:11;100139.38;;;21.11;100.00
60355;BME280;46198;51.464;-0.066;2023-08-01T11:13:50;100140.50;;;21.10;100.00
60355;BME280;46198;51.464;-0.066;2023-08-01T11:16:20;100139.56;;;20.73;100.00
60355;BME280;46198;51.464;-0.066;2023-08-01T11:18:49;100140.72;;;21.00;100.00
60355;BME280;46198;51.464;-0.066;2023-08-01T11:21:25;100140.41;;;21.43;100.00
60355;BME280;46198;51.464;-0.066;2023-08-01T11:23:54;100149.09;;;21.86;100.00
60355;BME280;46198;51.464;-0.066;2023-08-01T11:26:22;100147.25;;;21.82;100.00
60355;BME280;46198;51.464;-0.066;2023-08-01T11:28:50;100149.84;;;21.42;100.00
60355;BME280;46198;51.464;-0.066;2023-08-01T11:31:20;100143.47;;;21.00;100.00
60355;BME280;46198;51.464;-0.066;2023-08-01T11:33:55;100149.59;;;21.24;100.00
60355;BME280;46198;51.464;-0.066;2023-08-01T11:36:26;100153.91;;;21.31;100.00
60355;BME280;46198;51.464;-0.066;2023-08-01T11:38:57;100149.38;;;21.62;100.00
60355;BME280;46198;51.464;-0.066;2023-08-01T11:41:26;100144.59;;;21.77;100.00
60355;BME280;46198;51.464;-0.066;2023-08-01T11:43:55;100153.19;;;21.53;100.00
60355;BME280;46198;51.464;-0.066;2023-08-01T11:46:30;100142.00;;;21.58;100.00
60355;BME280;46198;51.464;-0.066;2023-08-01T11:48:59;100144.16;;;21.61;100.00
60355;BME280;46198;51.464;-0.066;2023-08-01T11:51:28;100149.22;;;21.45;100.00
60355;BME280;46198;51.464;-0.066;2023-08-01T11:54:00;100142.22;;;21.61;100.00
60355;BME280;46198;51.464;-0.066;2023-08-01T11:56:29;100131.66;;;22.00;100.00
60355;BME280;46198;51.464;-0.066;2023-08-01T11:58:57;100141.78;;;22.27;100.00
60355;BME280;46198;51.464;-0.066;2023-08-01T12:01:27;100130.38;;;22.82;100.00
60355;BME280;46198;51.464;-0.066;2023-08-01T12:03:56;100136.56;;;23.10;100.00
60355;BME280;46198;51.464;-0.066;2023-08-01T12:06:25;100137.75;;;22.95;93.81
60355;BME280;46198;51.464;-0.066;2023-08-01T12:08:53;100135.09;;;23.13;98.61
60355;BME280;46198;51.464;-0.066;2023-08-01T12:11:22;100134.03;;;23.66;82.14
60355;BME280;46198;51.464;-0.066;2023-08-01T12:14:01;100134.72;;;23.72;89.58
60355;BME280;46198;51.464;-0.066;2023-08-01T12:16:31;100134.41;;;24.08;90.12
60355;BME280;46198;51.464;-0.066;2023-08-01T12:18:59;100130.97;;;24.11;79.76
60355;BME280;46198;51.464;-0.066;2023-08-01T12:21:29;100123.31;;;24.08;86.27
60355;BME280;46198;51.464;-0.066;2023-08-01T12:23:57;100131.78;;;23.77;75.15
60355;BME280;46198;51.464;-0.066;2023-08-01T12:26:25;100131.75;;;23.68;78.46
60355;BME280;46198;51.464;-0.066;2023-08-01T12:28:53;100129.00;;;23.68;84.92
60355;BME280;46198;51.464;-0.066;2023-08-01T12:31:22;100140.66;;;23.30;81.21
60355;BME280;46198;51.464;-0.066;2023-08-01T12:33:51;100133.13;;;23.05;76.28
60355;BME280;46198;51.464;-0.066;2023-08-01T12:36:20;100132.22;;;22.95;74.14
60355;BME280;46198;51.464;-0.066;2023-08-01T12:38:49;100133.16;;;22.91;79.83